Portada
METAR-TAF:

METAR-TAF

Aeroports :

Tarawa, Kiribati

latitud: 01-21N, longitud: 172-55E, altitud: 2 m

Observació

L'informe es va fer fa 51 minuts, a les 19:00 UTC
Vent 8 kt del Est/Sud-Est
Temperatura 27°C
Humitat 79%
Pressió 1009 hPa
Visibilitat 10 km o més
Escasses núvols a una alçada de 2000 ft

METAR: NGTA 201900Z 11008KT 9999 FEW020 27/23 Q1009

Hora: 09:51 (19:51 UTC)

Pronòstic

L'informe es va fer fa 2 hores i 32 minuts, a les 17:19 UTC
Pronòstic vàlid del 20 a les 18 UTC al 21 a les 18 UTC
Vent 10 kt del Est/Sud-Est
Visibilitat 10 km o més
Escasses núvols a una alçada de 1900 ft
Probabilitat 30% :
Temporalment
l' 20 a les 18 UTC al 20 a les 21 UTC
Visibilitat: 5000 m
Cel ennuvolat a una alçada de 1600 ft
xàfecs de pluja

TAF: NGTA 201719Z 2018/2118 11010KT 9999 FEW019 PROB30 TEMPO 2018/2021 5000 SHRA BKN016

Observacions i pronòstics meteorològics de més de 4000 aeroports (METAR i TAF).

Les estacions disponibles són els punts grocs i vermells al mapa.

Posi el ratolí al punt desitjat per veure el nom de l'estació.

Feu clic per veure les observacions i els pronòstics meteorològics.

Per canviar el mapa: feu clic els botons verds amb una creu de color negre per apropar; al botó verd amb un guió per allunyar la imatge; o en les fletxes verdes per a mapes adjacents.


METAR-TAF: